sensor_id;sensor_type;location;lat;lon;timestamp;P1;durP1;ratioP1;P2;durP2;ratioP2
57433;SDS011;43277;52.672;6.984;2022-09-12T00:00:49;28.23;;;23.80;;
57433;SDS011;43277;52.672;6.984;2022-09-12T00:03:15;20.25;;;18.15;;
57433;SDS011;43277;52.672;6.984;2022-09-12T00:05:45;25.55;;;22.85;;
57433;SDS011;43277;52.672;6.984;2022-09-12T00:08:11;15.75;;;14.25;;
57433;SDS011;43277;52.672;6.984;2022-09-12T00:10:38;14.95;;;13.48;;
57433;SDS011;43277;52.672;6.984;2022-09-12T00:13:05;17.30;;;15.70;;
57433;SDS011;43277;52.672;6.984;2022-09-12T00:15:32;23.63;;;21.40;;
57433;SDS011;43277;52.672;6.984;2022-09-12T00:18:05;33.95;;;28.17;;
57433;SDS011;43277;52.672;6.984;2022-09-12T00:20:33;27.92;;;25.23;;
57433;SDS011;43277;52.672;6.984;2022-09-12T00:22:58;31.85;;;28.50;;
57433;SDS011;43277;52.672;6.984;2022-09-12T00:25:24;31.90;;;23.00;;
57433;SDS011;43277;52.672;6.984;2022-09-12T00:27:50;23.73;;;21.13;;
57433;SDS011;43277;52.672;6.984;2022-09-12T00:30:16;103.35;;;42.88;;
57433;SDS011;43277;52.672;6.984;2022-09-12T00:32:41;42.17;;;29.38;;
57433;SDS011;43277;52.672;6.984;2022-09-12T00:35:07;21.83;;;18.85;;
57433;SDS011;43277;52.672;6.984;2022-09-12T00:37:33;21.90;;;19.58;;
57433;SDS011;43277;52.672;6.984;2022-09-12T00:39:59;23.08;;;20.70;;
57433;SDS011;43277;52.672;6.984;2022-09-12T00:42:24;29.58;;;26.42;;
57433;SDS011;43277;52.672;6.984;2022-09-12T00:44:50;24.60;;;22.20;;
57433;SDS011;43277;52.672;6.984;2022-09-12T00:47:21;19.23;;;17.33;;
57433;SDS011;43277;52.672;6.984;2022-09-12T00:49:56;21.27;;;19.17;;
57433;SDS011;43277;52.672;6.984;2022-09-12T00:52:33;22.98;;;20.60;;
57433;SDS011;43277;52.672;6.984;2022-09-12T00:55:54;26.00;;;23.27;;
57433;SDS011;43277;52.672;6.984;2022-09-12T00:58:05;21.80;;;19.70;;
57433;SDS011;43277;52.672;6.984;2022-09-12T01:00:36;15.40;;;13.90;;
57433;SDS011;43277;52.672;6.984;2022-09-12T01:03:09;14.55;;;12.90;;
57433;SDS011;43277;52.672;6.984;2022-09-12T01:05:39;16.70;;;15.13;;
57433;SDS011;43277;52.672;6.984;2022-09-12T01:08:26;19.15;;;17.23;;
57433;SDS011;43277;52.672;6.984;2022-09-12T01:10:53;17.42;;;15.70;;
57433;SDS011;43277;52.672;6.984;2022-09-12T01:13:20;16.13;;;14.52;;
57433;SDS011;43277;52.672;6.984;2022-09-12T01:15:46;15.25;;;11.77;;
57433;SDS011;43277;52.672;6.984;2022-09-12T01:18:17;156.82;;;17.67;;
57433;SDS011;43277;52.672;6.984;2022-09-12T01:29:10;47.20;;;16.35;;
57433;SDS011;43277;52.672;6.984;2022-09-12T01:37:17;29.83;;;26.73;;
57433;SDS011;43277;52.672;6.984;2022-09-12T01:40:38;30.98;;;27.58;;
57433;SDS011;43277;52.672;6.984;2022-09-12T01:43:05;20.27;;;17.33;;
57433;SDS011;43277;52.672;6.984;2022-09-12T01:48:14;48.45;;;21.02;;
57433;SDS011;43277;52.672;6.984;2022-09-12T01:50:51;148.80;;;37.33;;
57433;SDS011;43277;52.672;6.984;2022-09-12T01:53:26;63.58;;;32.33;;
57433;SDS011;43277;52.672;6.984;2022-09-12T01:55:59;75.63;;;30.98;;
57433;SDS011;43277;52.672;6.984;2022-09-12T01:58:36;75.05;;;33.67;;
57433;SDS011;43277;52.672;6.984;2022-09-12T02:01:11;32.15;;;17.42;;
57433;SDS011;43277;52.672;6.984;2022-09-12T02:03:59;25.38;;;22.67;;
57433;SDS011;43277;52.672;6.984;2022-09-12T02:06:32;23.35;;;20.85;;
57433;SDS011;43277;52.672;6.984;2022-09-12T02:09:12;37.35;;;29.80;;
57433;SDS011;43277;52.672;6.984;2022-09-12T02:11:48;27.88;;;24.92;;
57433;SDS011;43277;52.672;6.984;2022-09-12T02:14:20;35.67;;;30.45;;
57433;SDS011;43277;52.672;6.984;2022-09-12T02:16:59;29.38;;;26.33;;
57433;SDS011;43277;52.672;6.984;2022-09-12T02:19:31;38.53;;;33.67;;
57433;SDS011;43277;52.672;6.984;2022-09-12T02:22:03;35.53;;;31.80;;
57433;SDS011;43277;52.672;6.984;2022-09-12T02:24:35;48.17;;;39.95;;
57433;SDS011;43277;52.672;6.984;2022-09-12T02:27:20;30.00;;;26.80;;
57433;SDS011;43277;52.672;6.984;2022-09-12T02:29:49;26.92;;;24.13;;
57433;SDS011;43277;52.672;6.984;2022-09-12T02:40:21;22.52;;;20.23;;
57433;SDS011;43277;52.672;6.984;2022-09-12T02:42:47;27.13;;;20.67;;
57433;SDS011;43277;52.672;6.984;2022-09-12T02:45:13;21.52;;;19.33;;
57433;SDS011;43277;52.672;6.984;2022-09-12T02:47:57;18.98;;;17.08;;
57433;SDS011;43277;52.672;6.984;2022-09-12T02:50:34;21.33;;;19.15;;
57433;SDS011;43277;52.672;6.984;2022-09-12T02:53:00;19.58;;;17.55;;
57433;SDS011;43277;52.672;6.984;2022-09-12T02:55:30;19.83;;;16.80;;
57433;SDS011;43277;52.672;6.984;2022-09-12T02:57:57;25.42;;;22.67;;
57433;SDS011;43277;52.672;6.984;2022-09-12T03:00:25;25.55;;;22.85;;
57433;SDS011;43277;52.672;6.984;2022-09-12T03:03:00;29.70;;;22.92;;
57433;SDS011;43277;52.672;6.984;2022-09-12T03:06:00;32.13;;;27.13;;
57433;SDS011;43277;52.672;6.984;2022-09-12T03:17:25;44.40;;;29.23;;
57433;SDS011;43277;52.672;6.984;2022-09-12T03:20:13;27.63;;;24.55;;
57433;SDS011;43277;52.672;6.984;2022-09-12T03:22:52;75.03;;;33.72;;
57433;SDS011;43277;52.672;6.984;2022-09-12T03:28:11;36.88;;;29.83;;
57433;SDS011;43277;52.672;6.984;2022-09-12T03:30:40;59.30;;;38.47;;
57433;SDS011;43277;52.672;6.984;2022-09-12T03:33:10;170.10;;;45.08;;
57433;SDS011;43277;52.672;6.984;2022-09-12T03:35:37;199.70;;;61.90;;
57433;SDS011;43277;52.672;6.984;2022-09-12T03:38:03;49.17;;;38.22;;
57433;SDS011;43277;52.672;6.984;2022-09-12T03:40:31;56.20;;;40.85;;
57433;SDS011;43277;52.672;6.984;2022-09-12T03:42:59;148.23;;;44.63;;
57433;SDS011;43277;52.672;6.984;2022-09-12T03:45:25;43.50;;;31.77;;
57433;SDS011;43277;52.672;6.984;2022-09-12T03:47:50;57.33;;;41.00;;
57433;SDS011;43277;52.672;6.984;2022-09-12T03:50:16;71.18;;;47.15;;
57433;SDS011;43277;52.672;6.984;2022-09-12T03:52:42;63.08;;;43.33;;
57433;SDS011;43277;52.672;6.984;2022-09-12T03:55:07;58.60;;;41.00;;
57433;SDS011;43277;52.672;6.984;2022-09-12T03:57:33;43.55;;;35.65;;
57433;SDS011;43277;52.672;6.984;2022-09-12T03:59:59;53.70;;;42.65;;
57433;SDS011;43277;52.672;6.984;2022-09-12T04:02:26;77.75;;;52.55;;
57433;SDS011;43277;52.672;6.984;2022-09-12T04:04:52;75.65;;;53.97;;
57433;SDS011;43277;52.672;6.984;2022-09-12T04:07:17;74.82;;;55.72;;
57433;SDS011;43277;52.672;6.984;2022-09-12T04:09:43;93.30;;;59.65;;
57433;SDS011;43277;52.672;6.984;2022-09-12T04:12:09;50.78;;;43.63;;
57433;SDS011;43277;52.672;6.984;2022-09-12T04:14:35;56.53;;;45.63;;
57433;SDS011;43277;52.672;6.984;2022-09-12T04:17:00;64.28;;;49.85;;
57433;SDS011;43277;52.672;6.984;2022-09-12T04:19:26;60.05;;;46.10;;
57433;SDS011;43277;52.672;6.984;2022-09-12T04:21:52;51.88;;;42.60;;
57433;SDS011;43277;52.672;6.984;2022-09-12T04:24:18;60.33;;;45.20;;
57433;SDS011;43277;52.672;6.984;2022-09-12T04:26:43;63.50;;;47.47;;
57433;SDS011;43277;52.672;6.984;2022-09-12T04:29:10;49.33;;;41.33;;
57433;SDS011;43277;52.672;6.984;2022-09-12T04:31:36;60.35;;;43.45;;
57433;SDS011;43277;52.672;6.984;2022-09-12T04:34:02;68.43;;;42.33;;
57433;SDS011;43277;52.672;6.984;2022-09-12T04:36:29;63.10;;;43.65;;
57433;SDS011;43277;52.672;6.984;2022-09-12T04:38:55;71.03;;;48.67;;
57433;SDS011;43277;52.672;6.984;2022-09-12T04:41:22;92.28;;;50.10;;
57433;SDS011;43277;52.672;6.984;2022-09-12T04:43:54;46.72;;;38.90;;
57433;SDS011;43277;52.672;6.984;2022-09-12T04:46:26;55.83;;;43.53;;
57433;SDS011;43277;52.672;6.984;2022-09-12T04:48:57;60.53;;;46.53;;
57433;SDS011;43277;52.672;6.984;2022-09-12T04:51:23;50.83;;;40.88;;
57433;SDS011;43277;52.672;6.984;2022-09-12T04:53:52;61.17;;;46.45;;
57433;SDS011;43277;52.672;6.984;2022-09-12T04:56:20;54.67;;;44.60;;
57433;SDS011;43277;52.672;6.984;2022-09-12T04:58:46;58.95;;;46.42;;
57433;SDS011;43277;52.672;6.984;2022-09-12T05:01:13;45.63;;;38.30;;
57433;SDS011;43277;52.672;6.984;2022-09-12T05:03:40;46.67;;;38.92;;
57433;SDS011;43277;52.672;6.984;2022-09-12T05:06:19;55.83;;;42.95;;
57433;SDS011;43277;52.672;6.984;2022-09-12T05:08:47;69.18;;;50.03;;
57433;SDS011;43277;52.672;6.984;2022-09-12T05:11:16;72.30;;;49.67;;
57433;SDS011;43277;52.672;6.984;2022-09-12T05:13:43;42.85;;;37.70;;
57433;SDS011;43277;52.672;6.984;2022-09-12T05:16:10;59.25;;;44.75;;
57433;SDS011;43277;52.672;6.984;2022-09-12T05:18:37;53.13;;;41.88;;
57433;SDS011;43277;52.672;6.984;2022-09-12T05:21:04;66.50;;;48.25;;
57433;SDS011;43277;52.672;6.984;2022-09-12T05:23:32;52.92;;;42.92;;
57433;SDS011;43277;52.672;6.984;2022-09-12T05:25:58;59.70;;;43.85;;
57433;SDS011;43277;52.672;6.984;2022-09-12T05:28:28;44.75;;;38.10;;
57433;SDS011;43277;52.672;6.984;2022-09-12T05:30:59;55.65;;;41.90;;
57433;SDS011;43277;52.672;6.984;2022-09-12T05:33:25;48.00;;;41.17;;
57433;SDS011;43277;52.672;6.984;2022-09-12T05:35:51;49.92;;;39.67;;
57433;SDS011;43277;52.672;6.984;2022-09-12T05:38:17;58.97;;;44.63;;
57433;SDS011;43277;52.672;6.984;2022-09-12T05:40:42;68.88;;;50.70;;
57433;SDS011;43277;52.672;6.984;2022-09-12T05:43:08;50.67;;;41.22;;
57433;SDS011;43277;52.672;6.984;2022-09-12T05:45:36;60.00;;;47.35;;
57433;SDS011;43277;52.672;6.984;2022-09-12T05:48:02;69.60;;;52.08;;
57433;SDS011;43277;52.672;6.984;2022-09-12T05:50:28;61.83;;;49.88;;
57433;SDS011;43277;52.672;6.984;2022-09-12T05:52:53;79.63;;;54.53;;
57433;SDS011;43277;52.672;6.984;2022-09-12T05:55:20;70.82;;;54.10;;
57433;SDS011;43277;52.672;6.984;2022-09-12T05:57:47;82.75;;;58.97;;
57433;SDS011;43277;52.672;6.984;2022-09-12T06:00:13;81.93;;;59.40;;
57433;SDS011;43277;52.672;6.984;2022-09-12T06:02:39;65.72;;;52.10;;
57433;SDS011;43277;52.672;6.984;2022-09-12T06:05:04;70.47;;;53.97;;
57433;SDS011;43277;52.672;6.984;2022-09-12T06:07:30;71.82;;;55.40;;
57433;SDS011;43277;52.672;6.984;2022-09-12T06:09:56;58.20;;;48.97;;
57433;SDS011;43277;52.672;6.984;2022-09-12T06:12:23;64.85;;;50.45;;
57433;SDS011;43277;52.672;6.984;2022-09-12T06:14:51;60.30;;;50.80;;
57433;SDS011;43277;52.672;6.984;2022-09-12T06:17:17;58.53;;;49.67;;
57433;SDS011;43277;52.672;6.984;2022-09-12T06:19:42;62.75;;;50.30;;
57433;SDS011;43277;52.672;6.984;2022-09-12T06:22:09;62.42;;;49.78;;
57433;SDS011;43277;52.672;6.984;2022-09-12T06:24:34;63.05;;;50.25;;
57433;SDS011;43277;52.672;6.984;2022-09-12T06:27:00;60.65;;;51.03;;
57433;SDS011;43277;52.672;6.984;2022-09-12T06:29:26;58.55;;;47.95;;
57433;SDS011;43277;52.672;6.984;2022-09-12T06:31:53;57.85;;;47.45;;
57433;SDS011;43277;52.672;6.984;2022-09-12T06:34:18;56.50;;;47.17;;
57433;SDS011;43277;52.672;6.984;2022-09-12T06:36:45;59.10;;;47.47;;
57433;SDS011;43277;52.672;6.984;2022-09-12T06:39:13;50.28;;;42.47;;
57433;SDS011;43277;52.672;6.984;2022-09-12T06:41:40;55.15;;;45.88;;
57433;SDS011;43277;52.672;6.984;2022-09-12T06:44:06;52.88;;;44.50;;
57433;SDS011;43277;52.672;6.984;2022-09-12T06:46:34;51.55;;;43.22;;
57433;SDS011;43277;52.672;6.984;2022-09-12T06:49:00;52.35;;;42.95;;
57433;SDS011;43277;52.672;6.984;2022-09-12T06:51:26;54.45;;;44.83;;
57433;SDS011;43277;52.672;6.984;2022-09-12T06:53:53;47.35;;;42.17;;
57433;SDS011;43277;52.672;6.984;2022-09-12T06:56:20;46.03;;;40.75;;
57433;SDS011;43277;52.672;6.984;2022-09-12T06:58:48;44.95;;;39.50;;
57433;SDS011;43277;52.672;6.984;2022-09-12T07:01:19;46.85;;;40.05;;
57433;SDS011;43277;52.672;6.984;2022-09-12T07:03:49;43.80;;;37.92;;
57433;SDS011;43277;52.672;6.984;2022-09-12T07:06:17;42.67;;;37.05;;
57433;SDS011;43277;52.672;6.984;2022-09-12T07:08:45;43.40;;;36.20;;
57433;SDS011;43277;52.672;6.984;2022-09-12T07:13:40;40.15;;;35.88;;
57433;SDS011;43277;52.672;6.984;2022-09-12T07:16:06;39.80;;;35.47;;
57433;SDS011;43277;52.672;6.984;2022-09-12T07:18:33;40.15;;;35.75;;
57433;SDS011;43277;52.672;6.984;2022-09-12T07:21:02;38.55;;;34.38;;
57433;SDS011;43277;52.672;6.984;2022-09-12T07:23:28;40.72;;;34.90;;
57433;SDS011;43277;52.672;6.984;2022-09-12T07:25:55;40.08;;;35.78;;
57433;SDS011;43277;52.672;6.984;2022-09-12T07:28:23;40.03;;;34.63;;
57433;SDS011;43277;52.672;6.984;2022-09-12T07:30:49;38.08;;;33.90;;
57433;SDS011;43277;52.672;6.984;2022-09-12T07:33:17;35.70;;;31.83;;
57433;SDS011;43277;52.672;6.984;2022-09-12T07:35:46;37.80;;;33.75;;
57433;SDS011;43277;52.672;6.984;2022-09-12T07:38:12;36.05;;;32.13;;
57433;SDS011;43277;52.672;6.984;2022-09-12T07:40:37;36.30;;;32.50;;
57433;SDS011;43277;52.672;6.984;2022-09-12T07:43:04;36.17;;;32.17;;
57433;SDS011;43277;52.672;6.984;2022-09-12T07:45:30;36.28;;;32.15;;
57433;SDS011;43277;52.672;6.984;2022-09-12T07:47:55;36.88;;;32.15;;
57433;SDS011;43277;52.672;6.984;2022-09-12T07:50:21;34.65;;;30.90;;
57433;SDS011;43277;52.672;6.984;2022-09-12T07:52:47;35.00;;;31.27;;
57433;SDS011;43277;52.672;6.984;2022-09-12T07:55:12;34.17;;;30.42;;
57433;SDS011;43277;52.672;6.984;2022-09-12T07:57:38;34.05;;;29.05;;
57433;SDS011;43277;52.672;6.984;2022-09-12T08:00:04;32.28;;;28.77;;
57433;SDS011;43277;52.672;6.984;2022-09-12T08:02:31;33.25;;;29.70;;
57433;SDS011;43277;52.672;6.984;2022-09-12T08:04:57;32.50;;;28.85;;
57433;SDS011;43277;52.672;6.984;2022-09-12T08:07:22;31.30;;;28.13;;
57433;SDS011;43277;52.672;6.984;2022-09-12T08:09:48;30.40;;;26.63;;
57433;SDS011;43277;52.672;6.984;2022-09-12T08:12:14;29.58;;;26.55;;
57433;SDS011;43277;52.672;6.984;2022-09-12T08:14:40;28.83;;;25.52;;
57433;SDS011;43277;52.672;6.984;2022-09-12T08:17:06;29.48;;;24.95;;
57433;SDS011;43277;52.672;6.984;2022-09-12T08:19:31;28.45;;;25.60;;
57433;SDS011;43277;52.672;6.984;2022-09-12T08:21:57;27.48;;;24.67;;
57433;SDS011;43277;52.672;6.984;2022-09-12T08:24:22;26.52;;;23.75;;
57433;SDS011;43277;52.672;6.984;2022-09-12T08:26:49;26.20;;;23.65;;
57433;SDS011;43277;52.672;6.984;2022-09-12T08:29:15;26.73;;;23.88;;
57433;SDS011;43277;52.672;6.984;2022-09-12T08:31:41;25.48;;;22.88;;
57433;SDS011;43277;52.672;6.984;2022-09-12T08:34:07;25.65;;;23.08;;
57433;SDS011;43277;52.672;6.984;2022-09-12T08:36:33;26.75;;;23.90;;
57433;SDS011;43277;52.672;6.984;2022-09-12T08:39:03;25.58;;;22.95;;
57433;SDS011;43277;52.672;6.984;2022-09-12T08:41:32;25.92;;;23.23;;
57433;SDS011;43277;52.672;6.984;2022-09-12T08:49:31;26.08;;;23.10;;
57433;SDS011;43277;52.672;6.984;2022-09-12T08:52:02;25.60;;;23.00;;
57433;SDS011;43277;52.672;6.984;2022-09-12T08:54:33;28.55;;;22.90;;
57433;SDS011;43277;52.672;6.984;2022-09-12T08:57:03;26.42;;;23.63;;
57433;SDS011;43277;52.672;6.984;2022-09-12T08:59:32;26.25;;;23.30;;
57433;SDS011;43277;52.672;6.984;2022-09-12T09:02:03;26.05;;;23.33;;
57433;SDS011;43277;52.672;6.984;2022-09-12T09:04:49;26.08;;;23.38;;
57433;SDS011;43277;52.672;6.984;2022-09-12T09:07:44;25.60;;;22.95;;
57433;SDS011;43277;52.672;6.984;2022-09-12T09:16:37;26.92;;;24.02;;
57433;SDS011;43277;52.672;6.984;2022-09-12T09:19:07;28.10;;;24.77;;
57433;SDS011;43277;52.672;6.984;2022-09-12T09:21:44;27.13;;;24.20;;
57433;SDS011;43277;52.672;6.984;2022-09-12T09:24:37;31.90;;;27.40;;
57433;SDS011;43277;52.672;6.984;2022-09-12T09:27:12;28.25;;;24.70;;
57433;SDS011;43277;52.672;6.984;2022-09-12T09:29:57;28.48;;;25.38;;
57433;SDS011;43277;52.672;6.984;2022-09-12T09:32:27;27.05;;;24.17;;
57433;SDS011;43277;52.672;6.984;2022-09-12T09:36:05;27.38;;;24.15;;
57433;SDS011;43277;52.672;6.984;2022-09-12T09:43:35;29.73;;;25.83;;
57433;SDS011;43277;52.672;6.984;2022-09-12T09:46:02;28.67;;;24.90;;
57433;SDS011;43277;52.672;6.984;2022-09-12T09:48:28;28.33;;;25.35;;
57433;SDS011;43277;52.672;6.984;2022-09-12T09:51:01;30.13;;;26.92;;
57433;SDS011;43277;52.672;6.984;2022-09-12T09:53:34;31.58;;;27.67;;
57433;SDS011;43277;52.672;6.984;2022-09-12T09:56:01;30.92;;;27.63;;
57433;SDS011;43277;52.672;6.984;2022-09-12T09:58:35;30.52;;;26.73;;
57433;SDS011;43277;52.672;6.984;2022-09-12T10:01:01;28.80;;;25.65;;
57433;SDS011;43277;52.672;6.984;2022-09-12T10:03:38;27.83;;;24.92;;
57433;SDS011;43277;52.672;6.984;2022-09-12T10:06:21;29.33;;;26.02;;
57433;SDS011;43277;52.672;6.984;2022-09-12T10:08:50;30.98;;;24.40;;
57433;SDS011;43277;52.672;6.984;2022-09-12T10:11:19;27.75;;;24.83;;
57433;SDS011;43277;52.672;6.984;2022-09-12T10:16:22;28.27;;;23.48;;
57433;SDS011;43277;52.672;6.984;2022-09-12T10:18:50;27.55;;;24.08;;
57433;SDS011;43277;52.672;6.984;2022-09-12T10:21:18;30.17;;;23.23;;
57433;SDS011;43277;52.672;6.984;2022-09-12T10:23:58;27.67;;;24.33;;
57433;SDS011;43277;52.672;6.984;2022-09-12T10:26:44;26.15;;;23.35;;
57433;SDS011;43277;52.672;6.984;2022-09-12T10:29:16;27.10;;;23.92;;
57433;SDS011;43277;52.672;6.984;2022-09-12T10:31:51;26.48;;;22.38;;
57433;SDS011;43277;52.672;6.984;2022-09-12T10:34:24;24.40;;;21.48;;
57433;SDS011;43277;52.672;6.984;2022-09-12T10:36:52;24.15;;;20.90;;
57433;SDS011;43277;52.672;6.984;2022-09-12T10:39:24;27.25;;;22.85;;
57433;SDS011;43277;52.672;6.984;2022-09-12T10:41:50;26.27;;;23.58;;
57433;SDS011;43277;52.672;6.984;2022-09-12T10:44:17;25.42;;;21.83;;
57433;SDS011;43277;52.672;6.984;2022-09-12T10:46:52;24.27;;;21.65;;
57433;SDS011;43277;52.672;6.984;2022-09-12T10:51:49;22.27;;;19.40;;
57433;SDS011;43277;52.672;6.984;2022-09-12T10:54:17;23.25;;;20.45;;
57433;SDS011;43277;52.672;6.984;2022-09-12T11:18:02;18.38;;;16.45;;
57433;SDS011;43277;52.672;6.984;2022-09-12T11:23:38;19.95;;;16.95;;
57433;SDS011;43277;52.672;6.984;2022-09-12T11:29:02;19.15;;;16.90;;
57433;SDS011;43277;52.672;6.984;2022-09-12T11:37:22;18.42;;;15.07;;
57433;SDS011;43277;52.672;6.984;2022-09-12T11:39:51;14.88;;;12.48;;
57433;SDS011;43277;52.672;6.984;2022-09-12T11:42:22;14.13;;;12.25;;
57433;SDS011;43277;52.672;6.984;2022-09-12T11:44:59;17.42;;;14.35;;
57433;SDS011;43277;52.672;6.984;2022-09-12T11:47:32;16.13;;;14.05;;
57433;SDS011;43277;52.672;6.984;2022-09-12T11:49:59;13.95;;;12.50;;
57433;SDS011;43277;52.672;6.984;2022-09-12T11:57:49;17.33;;;14.25;;
57433;SDS011;43277;52.672;6.984;2022-09-12T12:03:14;18.27;;;13.60;;
57433;SDS011;43277;52.672;6.984;2022-09-12T12:06:01;18.15;;;14.98;;
57433;SDS011;43277;52.672;6.984;2022-09-12T12:08:31;16.42;;;12.82;;
57433;SDS011;43277;52.672;6.984;2022-09-12T12:11:03;15.13;;;12.32;;
57433;SDS011;43277;52.672;6.984;2022-09-12T12:13:34;15.15;;;13.55;;
57433;SDS011;43277;52.672;6.984;2022-09-12T12:16:11;21.60;;;13.68;;
57433;SDS011;43277;52.672;6.984;2022-09-12T12:18:51;14.90;;;12.70;;
57433;SDS011;43277;52.672;6.984;2022-09-12T12:24:11;14.55;;;12.38;;
57433;SDS011;43277;52.672;6.984;2022-09-12T12:34:35;15.82;;;13.00;;
57433;SDS011;43277;52.672;6.984;2022-09-12T12:44:57;16.23;;;10.30;;
57433;SDS011;43277;52.672;6.984;2022-09-12T12:47:26;13.50;;;10.68;;
57433;SDS011;43277;52.672;6.984;2022-09-12T12:52:50;12.50;;;9.00;;
57433;SDS011;43277;52.672;6.984;2022-09-12T12:58:03;9.15;;;6.63;;
57433;SDS011;43277;52.672;6.984;2022-09-12T13:03:08;9.00;;;5.32;;
57433;SDS011;43277;52.672;6.984;2022-09-12T13:05:43;10.75;;;5.38;;
57433;SDS011;43277;52.672;6.984;2022-09-12T13:10:47;8.18;;;5.00;;
57433;SDS011;43277;52.672;6.984;2022-09-12T13:13:40;9.13;;;4.32;;
57433;SDS011;43277;52.672;6.984;2022-09-12T13:16:50;7.95;;;4.88;;
57433;SDS011;43277;52.672;6.984;2022-09-12T13:19:29;7.72;;;5.63;;
57433;SDS011;43277;52.672;6.984;2022-09-12T13:24:30;9.45;;;5.38;;
57433;SDS011;43277;52.672;6.984;2022-09-12T13:26:56;7.72;;;5.28;;
57433;SDS011;43277;52.672;6.984;2022-09-12T13:29:22;9.02;;;5.00;;
57433;SDS011;43277;52.672;6.984;2022-09-12T13:31:53;7.82;;;4.95;;
57433;SDS011;43277;52.672;6.984;2022-09-12T13:34:23;7.55;;;4.40;;
57433;SDS011;43277;52.672;6.984;2022-09-12T13:39:26;7.70;;;5.15;;
57433;SDS011;43277;52.672;6.984;2022-09-12T13:44:45;8.93;;;5.70;;
57433;SDS011;43277;52.672;6.984;2022-09-12T13:47:26;8.75;;;5.45;;
57433;SDS011;43277;52.672;6.984;2022-09-12T13:49:55;11.48;;;6.18;;
57433;SDS011;43277;52.672;6.984;2022-09-12T13:52:23;8.02;;;5.07;;
57433;SDS011;43277;52.672;6.984;2022-09-12T13:54:52;9.55;;;5.18;;
57433;SDS011;43277;52.672;6.984;2022-09-12T13:57:38;7.07;;;3.75;;
57433;SDS011;43277;52.672;6.984;2022-09-12T14:02:43;8.45;;;4.80;;
57433;SDS011;43277;52.672;6.984;2022-09-12T14:05:12;7.80;;;4.40;;
57433;SDS011;43277;52.672;6.984;2022-09-12T14:12:51;7.68;;;4.70;;
57433;SDS011;43277;52.672;6.984;2022-09-12T14:15:18;7.65;;;3.97;;
57433;SDS011;43277;52.672;6.984;2022-09-12T14:17:52;10.02;;;3.90;;
57433;SDS011;43277;52.672;6.984;2022-09-12T14:20:20;7.55;;;3.53;;
57433;SDS011;43277;52.672;6.984;2022-09-12T14:22:48;7.95;;;4.07;;
57433;SDS011;43277;52.672;6.984;2022-09-12T14:25:18;7.40;;;4.25;;
57433;SDS011;43277;52.672;6.984;2022-09-12T14:27:46;6.15;;;3.40;;
57433;SDS011;43277;52.672;6.984;2022-09-12T14:35:47;6.10;;;3.40;;
57433;SDS011;43277;52.672;6.984;2022-09-12T14:40:41;5.75;;;3.25;;
57433;SDS011;43277;52.672;6.984;2022-09-12T14:43:20;6.60;;;2.75;;
57433;SDS011;43277;52.672;6.984;2022-09-12T14:45:50;6.50;;;2.65;;
57433;SDS011;43277;52.672;6.984;2022-09-12T14:48:18;5.95;;;2.80;;
57433;SDS011;43277;52.672;6.984;2022-09-12T14:50:47;5.63;;;2.63;;
57433;SDS011;43277;52.672;6.984;2022-09-12T14:56:35;7.30;;;2.70;;
57433;SDS011;43277;52.672;6.984;2022-09-12T14:58:37;5.45;;;2.63;;
57433;SDS011;43277;52.672;6.984;2022-09-12T15:09:07;6.72;;;2.70;;
57433;SDS011;43277;52.672;6.984;2022-09-12T15:11:36;6.70;;;2.63;;
57433;SDS011;43277;52.672;6.984;2022-09-12T15:14:07;6.63;;;2.80;;
57433;SDS011;43277;52.672;6.984;2022-09-12T15:16:37;6.18;;;2.60;;
57433;SDS011;43277;52.672;6.984;2022-09-12T15:19:02;7.30;;;3.03;;
57433;SDS011;43277;52.672;6.984;2022-09-12T15:21:28;7.75;;;3.50;;
57433;SDS011;43277;52.672;6.984;2022-09-12T15:23:54;6.10;;;3.45;;
57433;SDS011;43277;52.672;6.984;2022-09-12T15:26:21;6.88;;;3.50;;
57433;SDS011;43277;52.672;6.984;2022-09-12T15:28:50;7.35;;;3.30;;
57433;SDS011;43277;52.672;6.984;2022-09-12T15:33:41;7.65;;;3.33;;
57433;SDS011;43277;52.672;6.984;2022-09-12T15:36:17;7.32;;;3.50;;
57433;SDS011;43277;52.672;6.984;2022-09-12T15:38:45;7.72;;;3.33;;
57433;SDS011;43277;52.672;6.984;2022-09-12T15:41:15;6.95;;;3.33;;
57433;SDS011;43277;52.672;6.984;2022-09-12T15:43:50;7.32;;;3.08;;
57433;SDS011;43277;52.672;6.984;2022-09-12T15:46:16;7.30;;;3.40;;
57433;SDS011;43277;52.672;6.984;2022-09-12T15:48:43;7.97;;;2.90;;
57433;SDS011;43277;52.672;6.984;2022-09-12T15:51:10;7.25;;;3.40;;
57433;SDS011;43277;52.672;6.984;2022-09-12T15:53:37;5.85;;;2.70;;
57433;SDS011;43277;52.672;6.984;2022-09-12T15:56:03;6.10;;;2.80;;
57433;SDS011;43277;52.672;6.984;2022-09-12T15:58:28;6.55;;;2.90;;
57433;SDS011;43277;52.672;6.984;2022-09-12T16:00:54;5.38;;;2.88;;
57433;SDS011;43277;52.672;6.984;2022-09-12T16:03:24;6.00;;;2.83;;
57433;SDS011;43277;52.672;6.984;2022-09-12T16:05:55;5.30;;;2.80;;
57433;SDS011;43277;52.672;6.984;2022-09-12T16:08:22;8.05;;;3.40;;
57433;SDS011;43277;52.672;6.984;2022-09-12T16:10:48;5.30;;;2.80;;
57433;SDS011;43277;52.672;6.984;2022-09-12T16:13:20;6.20;;;2.50;;
57433;SDS011;43277;52.672;6.984;2022-09-12T16:15:49;10.10;;;2.65;;
57433;SDS011;43277;52.672;6.984;2022-09-12T16:18:15;5.63;;;3.17;;
57433;SDS011;43277;52.672;6.984;2022-09-12T16:20:41;8.00;;;2.97;;
57433;SDS011;43277;52.672;6.984;2022-09-12T16:23:10;6.22;;;2.80;;
57433;SDS011;43277;52.672;6.984;2022-09-12T16:25:37;5.57;;;2.90;;
57433;SDS011;43277;52.672;6.984;2022-09-12T16:28:03;8.32;;;2.80;;
57433;SDS011;43277;52.672;6.984;2022-09-12T16:30:30;6.18;;;2.95;;
57433;SDS011;43277;52.672;6.984;2022-09-12T16:32:59;7.68;;;3.05;;
57433;SDS011;43277;52.672;6.984;2022-09-12T16:35:24;8.18;;;3.20;;
57433;SDS011;43277;52.672;6.984;2022-09-12T16:37:50;6.18;;;2.88;;
57433;SDS011;43277;52.672;6.984;2022-09-12T16:40:16;6.85;;;2.70;;
57433;SDS011;43277;52.672;6.984;2022-09-12T16:42:43;7.30;;;3.30;;
57433;SDS011;43277;52.672;6.984;2022-09-12T16:45:10;13.05;;;3.50;;
57433;SDS011;43277;52.672;6.984;2022-09-12T16:47:36;7.95;;;3.70;;
57433;SDS011;43277;52.672;6.984;2022-09-12T16:50:02;6.40;;;3.40;;
57433;SDS011;43277;52.672;6.984;2022-09-12T16:52:28;8.48;;;3.58;;
57433;SDS011;43277;52.672;6.984;2022-09-12T16:54:55;5.68;;;2.85;;
57433;SDS011;43277;52.672;6.984;2022-09-12T16:57:21;5.70;;;3.28;;
57433;SDS011;43277;52.672;6.984;2022-09-12T16:59:47;7.72;;;3.13;;
57433;SDS011;43277;52.672;6.984;2022-09-12T17:02:13;7.95;;;3.42;;
57433;SDS011;43277;52.672;6.984;2022-09-12T17:04:39;6.22;;;3.22;;
57433;SDS011;43277;52.672;6.984;2022-09-12T17:07:06;9.38;;;4.15;;
57433;SDS011;43277;52.672;6.984;2022-09-12T17:09:32;13.07;;;4.05;;
57433;SDS011;43277;52.672;6.984;2022-09-12T17:11:59;9.02;;;3.80;;
57433;SDS011;43277;52.672;6.984;2022-09-12T17:14:24;11.30;;;4.35;;
57433;SDS011;43277;52.672;6.984;2022-09-12T17:16:50;9.93;;;3.78;;
57433;SDS011;43277;52.672;6.984;2022-09-12T17:19:23;13.52;;;4.50;;
57433;SDS011;43277;52.672;6.984;2022-09-12T17:21:50;16.10;;;4.22;;
57433;SDS011;43277;52.672;6.984;2022-09-12T17:24:16;16.83;;;4.40;;
57433;SDS011;43277;52.672;6.984;2022-09-12T17:26:43;13.13;;;3.90;;
57433;SDS011;43277;52.672;6.984;2022-09-12T17:29:10;6.90;;;3.35;;
57433;SDS011;43277;52.672;6.984;2022-09-12T17:31:39;8.32;;;3.80;;